Terminal Aerodrome Forecast
Issued by NWS

Home | Current Version | Previous Version | Graphics & Text | Print | Product List | Glossary On
Versions: 1 2 3 4 5 6 7 8 9 10 11 12 13 14 15 16 17 18 19 20 21 22 23 24 25
000
FTUS43 KEAX 041120
TAFSTJ
TAF
KSTJ 041120Z 0412/0512 10007KT P6SM FEW060
     FM041400 13005KT P6SM VCTS BKN050CB
     FM041900 16007KT P6SM SCT050
     FM050200 17004KT 6SM -TSRA SCT040CB
      TEMPO 0503/0507 2SM TSRA BKN030CB=

USA.gov is the U.S. government's official web portal to all federal, state and local government web resources and services.